createdAt,value
2022-11-10T00:01:27.311Z,9.24
2022-11-10T00:03:53.641Z,9.22
2022-11-10T00:06:19.974Z,9.21
2022-11-10T00:08:46.414Z,9.20
2022-11-10T00:11:14.165Z,9.20
2022-11-10T00:13:40.461Z,9.19
2022-11-10T00:16:06.935Z,9.19
2022-11-10T00:18:33.230Z,9.20
2022-11-10T00:21:02.305Z,9.21
2022-11-10T00:23:28.582Z,9.19
2022-11-10T00:25:55.125Z,9.20
2022-11-10T00:28:22.761Z,9.20
2022-11-10T00:30:49.046Z,9.21
2022-11-10T00:33:15.339Z,9.22
2022-11-10T00:35:41.609Z,9.19
2022-11-10T00:38:07.905Z,9.20
2022-11-10T00:40:34.182Z,9.19
2022-11-10T00:43:00.454Z,9.16
2022-11-10T00:45:28.090Z,9.13
2022-11-10T00:47:54.366Z,9.15
2022-11-10T00:50:20.700Z,9.16
2022-11-10T00:52:47.011Z,9.14
2022-11-10T00:55:13.323Z,9.15
2022-11-10T00:57:39.608Z,9.14
2022-11-10T01:00:06.547Z,9.16
2022-11-10T01:02:34.195Z,9.11
2022-11-10T01:05:00.537Z,9.12
2022-11-10T01:07:26.841Z,9.10
2022-11-10T01:09:53.129Z,9.11
2022-11-10T01:12:19.415Z,9.10
2022-11-10T01:14:47.057Z,9.10
2022-11-10T01:17:13.315Z,9.09
2022-11-10T01:19:41.409Z,9.08
2022-11-10T01:22:07.719Z,9.07
2022-11-10T01:24:34.017Z,9.07
2022-11-10T01:27:00.296Z,9.06
2022-11-10T01:29:26.604Z,9.06
2022-11-10T01:31:52.880Z,9.05
2022-11-10T01:34:19.168Z,9.05
2022-11-10T01:36:46.780Z,9.02
2022-11-10T01:39:13.070Z,9.03
2022-11-10T01:41:39.356Z,9.02
2022-11-10T01:44:13.009Z,8.99
2022-11-10T01:46:39.470Z,8.98
2022-11-10T01:49:06.120Z,8.96
2022-11-10T01:51:34.170Z,8.98
2022-11-10T01:54:05.307Z,8.95
2022-11-10T01:56:33.714Z,8.94
2022-11-10T01:59:03.280Z,8.93
2022-11-10T02:01:30.163Z,8.92
2022-11-10T02:03:58.815Z,8.92
2022-11-10T02:06:26.629Z,8.88
2022-11-10T02:08:53.912Z,8.87
2022-11-10T02:11:22.468Z,8.88
2022-11-10T02:13:49.023Z,8.86
2022-11-10T02:16:15.438Z,8.87
2022-11-10T02:18:41.819Z,8.84
2022-11-10T02:21:09.484Z,8.82
2022-11-10T02:23:49.214Z,8.82
2022-11-10T02:26:17.637Z,8.82
2022-11-10T02:28:43.944Z,8.82
2022-11-10T02:31:10.261Z,8.85
2022-11-10T02:33:36.779Z,8.84
2022-11-10T02:36:03.434Z,8.83
2022-11-10T02:38:31.067Z,8.81
2022-11-10T02:40:57.370Z,8.81
2022-11-10T02:43:24.108Z,8.82
2022-11-10T02:45:50.625Z,8.82
2022-11-10T02:48:16.927Z,8.84
2022-11-10T02:50:43.692Z,8.87
2022-11-10T02:53:10.009Z,8.88
2022-11-10T02:55:37.613Z,8.90
2022-11-10T02:58:03.908Z,8.87
2022-11-10T03:00:30.312Z,8.87
2022-11-10T03:02:56.951Z,8.86
2022-11-10T03:05:23.290Z,8.88
2022-11-10T03:07:52.138Z,8.86
2022-11-10T03:10:18.495Z,8.84
2022-11-10T03:12:46.134Z,8.82
2022-11-10T03:15:12.396Z,8.80
2022-11-10T03:17:38.825Z,8.81
2022-11-10T03:20:05.379Z,8.79
2022-11-10T03:22:31.658Z,8.81
2022-11-10T03:24:57.945Z,8.77
2022-11-10T03:27:24.250Z,8.75
2022-11-10T03:29:51.872Z,8.76
2022-11-10T03:32:18.135Z,8.73
2022-11-10T03:34:44.411Z,8.73
2022-11-10T03:37:10.691Z,8.72
2022-11-10T03:39:36.971Z,8.72
2022-11-10T03:42:03.289Z,8.71
2022-11-10T03:44:29.567Z,8.70
2022-11-10T03:46:57.189Z,8.71
2022-11-10T03:49:23.537Z,8.72
2022-11-10T03:51:49.852Z,8.68
2022-11-10T03:54:16.131Z,8.67
2022-11-10T03:56:42.409Z,8.65
2022-11-10T03:59:08.687Z,8.65
2022-11-10T04:01:35.087Z,8.65
2022-11-10T04:04:02.821Z,8.62
2022-11-10T04:06:29.133Z,8.62
2022-11-10T04:08:55.421Z,8.63
2022-11-10T04:11:21.842Z,8.62
2022-11-10T04:13:48.119Z,8.62
2022-11-10T04:16:14.423Z,8.60
2022-11-10T04:18:40.687Z,8.60
2022-11-10T04:21:08.304Z,8.59
2022-11-10T04:23:34.595Z,8.58
2022-11-10T04:26:01.877Z,8.58
2022-11-10T04:28:28.185Z,8.56
2022-11-10T04:30:54.455Z,8.57
2022-11-10T04:33:20.969Z,8.55
2022-11-10T04:35:47.482Z,8.57
2022-11-10T04:38:15.116Z,8.56
2022-11-10T04:40:41.409Z,8.56
2022-11-10T04:43:07.723Z,8.55
2022-11-10T04:45:34.370Z,8.55
2022-11-10T04:48:00.656Z,8.53
2022-11-10T04:50:26.987Z,8.54
2022-11-10T04:52:53.267Z,8.55
2022-11-10T04:55:20.891Z,8.56
2022-11-10T04:57:47.197Z,8.57
2022-11-10T05:00:14.047Z,8.56
2022-11-10T05:02:40.302Z,8.54
2022-11-10T05:05:06.876Z,8.51
2022-11-10T05:07:33.176Z,8.52
2022-11-10T05:09:59.475Z,8.52
2022-11-10T05:12:27.105Z,8.49
2022-11-10T05:14:53.420Z,8.48
2022-11-10T05:17:19.699Z,8.47
2022-11-10T05:19:45.972Z,8.48
2022-11-10T05:22:12.253Z,8.46
2022-11-10T05:24:38.539Z,8.45
2022-11-10T05:27:05.220Z,8.45
2022-11-10T05:29:32.846Z,8.43
2022-11-10T05:31:59.134Z,8.44
2022-11-10T05:34:25.430Z,8.46
2022-11-10T05:36:51.704Z,8.48
2022-11-10T05:39:17.980Z,8.45
2022-11-10T05:41:44.259Z,8.46
2022-11-10T05:44:10.588Z,8.46
2022-11-10T05:46:38.206Z,8.46
2022-11-10T05:49:04.577Z,8.45
2022-11-10T05:51:30.884Z,8.43
2022-11-10T05:53:57.167Z,8.42
2022-11-10T05:56:23.425Z,8.40
2022-11-10T05:58:49.739Z,8.41
2022-11-10T06:01:16.011Z,8.42
2022-11-10T06:03:43.648Z,8.43
2022-11-10T06:06:09.968Z,8.41
2022-11-10T06:08:36.272Z,8.40
2022-11-10T06:11:02.547Z,8.42
2022-11-10T06:13:28.824Z,8.41
2022-11-10T06:15:55.129Z,8.41
2022-11-10T06:18:21.433Z,8.42
2022-11-10T06:20:49.108Z,8.40
2022-11-10T06:23:15.664Z,8.42
2022-11-10T06:25:42.300Z,8.39
2022-11-10T06:28:08.936Z,8.39
2022-11-10T06:30:36.188Z,8.37
2022-11-10T06:33:02.642Z,8.37
2022-11-10T06:35:29.392Z,8.34
2022-11-10T06:38:01.364Z,8.34
2022-11-10T06:40:28.104Z,8.33
2022-11-10T06:42:54.431Z,8.32
2022-11-10T06:45:20.883Z,8.31
2022-11-10T06:47:47.155Z,8.29
2022-11-10T06:50:13.699Z,8.30
2022-11-10T06:52:39.981Z,8.30
2022-11-10T06:55:08.277Z,8.30
2022-11-10T06:57:37.322Z,8.32
2022-11-10T07:00:04.058Z,8.30
2022-11-10T07:02:30.356Z,8.31
2022-11-10T07:04:56.623Z,8.35
2022-11-10T07:07:22.913Z,8.35
2022-11-10T07:09:49.216Z,8.39
2022-11-10T07:12:16.847Z,8.40
2022-11-10T07:14:43.128Z,8.43
2022-11-10T07:17:09.408Z,8.45
2022-11-10T07:19:35.675Z,8.48
2022-11-10T07:22:02.677Z,8.50
2022-11-10T07:24:31.786Z,8.52
2022-11-10T07:26:58.149Z,8.56
2022-11-10T07:29:25.817Z,8.59
2022-11-10T07:31:52.308Z,8.62
2022-11-10T07:34:18.652Z,8.66
2022-11-10T07:36:44.966Z,8.69
2022-11-10T07:39:11.263Z,8.73
2022-11-10T07:41:37.560Z,8.77
2022-11-10T07:44:03.997Z,8.84
2022-11-10T07:46:31.639Z,8.88
2022-11-10T07:48:57.972Z,8.93
2022-11-10T07:51:24.303Z,8.95
2022-11-10T07:53:50.590Z,9.01
2022-11-10T07:56:16.859Z,9.09
2022-11-10T07:58:43.146Z,9.10
2022-11-10T08:01:09.809Z,9.13
2022-11-10T08:03:37.481Z,9.20
2022-11-10T08:06:03.910Z,9.24
2022-11-10T08:08:30.416Z,9.31
2022-11-10T08:10:57.622Z,9.34
2022-11-10T08:13:24.147Z,9.38
2022-11-10T08:15:50.796Z,9.44
2022-11-10T08:18:18.589Z,9.53
2022-11-10T08:20:46.261Z,9.56
2022-11-10T08:23:12.691Z,9.62
2022-11-10T08:25:39.315Z,9.66
2022-11-10T08:28:06.858Z,9.71
2022-11-10T08:30:34.702Z,9.76
2022-11-10T08:33:01.840Z,9.83
2022-11-10T08:35:29.065Z,9.92
2022-11-10T08:37:56.711Z,9.98
2022-11-10T08:40:24.696Z,10.06
2022-11-10T08:42:57.746Z,10.12
2022-11-10T08:45:24.062Z,10.18
2022-11-10T08:47:56.104Z,10.27
2022-11-10T08:50:22.380Z,10.33
2022-11-10T08:52:48.697Z,10.38
2022-11-10T08:55:16.428Z,10.43
2022-11-10T08:57:42.715Z,10.49
2022-11-10T09:00:09.792Z,10.53
2022-11-10T09:02:36.074Z,10.58
2022-11-10T09:05:02.441Z,10.66
2022-11-10T09:07:28.759Z,10.71
2022-11-10T09:10:06.685Z,10.78
2022-11-10T09:12:36.126Z,10.84
2022-11-10T09:15:02.438Z,10.92
2022-11-10T09:17:28.716Z,10.98
2022-11-10T09:19:55.072Z,11.03
2022-11-10T09:22:21.434Z,11.11
2022-11-10T09:24:47.738Z,11.18
2022-11-10T09:27:14.048Z,11.24
2022-11-10T09:29:41.704Z,11.31
2022-11-10T09:32:07.994Z,11.41
2022-11-10T09:34:34.297Z,11.44
2022-11-10T09:37:00.572Z,11.50
2022-11-10T09:39:26.868Z,11.59
2022-11-10T09:41:53.228Z,11.68
2022-11-10T09:44:22.975Z,11.77
2022-11-10T09:46:53.382Z,11.83
2022-11-10T09:49:25.412Z,11.90
2022-11-10T09:51:53.206Z,11.97
2022-11-10T09:54:27.495Z,12.04
2022-11-10T09:56:53.813Z,12.14
2022-11-10T09:59:25.183Z,12.23
2022-11-10T10:01:58.424Z,12.29
2022-11-10T10:04:51.518Z,12.37
2022-11-10T10:07:22.675Z,12.47
2022-11-10T10:09:52.900Z,12.53
2022-11-10T10:12:24.958Z,12.62
2022-11-10T10:15:02.900Z,12.68
2022-11-10T10:17:38.362Z,12.71
2022-11-10T10:20:11.603Z,12.79
2022-11-10T10:22:45.906Z,12.82
2022-11-10T10:25:14.287Z,12.85
2022-11-10T10:27:40.808Z,12.90
2022-11-10T10:30:11.849Z,12.94
2022-11-10T10:32:39.904Z,12.98
2022-11-10T10:35:06.643Z,13.03
2022-11-10T10:37:39.121Z,13.08
2022-11-10T10:40:06.127Z,13.15
2022-11-10T10:42:33.815Z,13.20
2022-11-10T10:45:17.102Z,13.24
2022-11-10T10:47:45.185Z,13.31
2022-11-10T10:50:22.389Z,13.31
2022-11-10T10:53:05.156Z,13.32
2022-11-10T10:55:31.455Z,13.34
2022-11-10T10:57:58.386Z,13.37
2022-11-10T11:00:24.825Z,13.39
2022-11-10T11:03:04.602Z,13.39
2022-11-10T11:05:31.257Z,13.38
2022-11-10T11:07:58.446Z,13.40
2022-11-10T11:10:26.162Z,13.39
2022-11-10T11:12:52.501Z,13.37
2022-11-10T11:15:20.965Z,13.36
2022-11-10T11:17:54.192Z,13.38
2022-11-10T11:20:25.394Z,13.37
2022-11-10T11:22:56.567Z,13.37
2022-11-10T11:25:27.038Z,13.35
2022-11-10T11:27:57.386Z,13.37
2022-11-10T11:30:24.268Z,13.42
2022-11-10T11:32:57.235Z,13.42
2022-11-10T11:35:29.154Z,13.47
2022-11-10T11:38:01.971Z,13.47
2022-11-10T11:40:32.067Z,13.49
2022-11-10T11:43:05.164Z,13.53
2022-11-10T11:45:36.678Z,13.58
2022-11-10T11:48:14.937Z,13.59
2022-11-10T11:50:48.619Z,13.64
2022-11-10T11:53:23.192Z,13.71
2022-11-10T11:56:02.728Z,13.78
2022-11-10T11:58:35.332Z,13.88
2022-11-10T12:01:07.527Z,13.98
2022-11-10T12:03:42.861Z,13.99
2022-11-10T12:06:21.644Z,14.03
2022-11-10T12:08:51.867Z,14.10
2022-11-10T12:11:21.080Z,14.12
2022-11-10T12:13:53.790Z,14.14
2022-11-10T12:16:21.857Z,14.11
2022-11-10T12:18:53.493Z,14.07
2022-11-10T12:21:25.221Z,14.06
2022-11-10T12:24:00.144Z,14.05
2022-11-10T12:26:32.884Z,14.09
2022-11-10T12:29:02.942Z,14.09
2022-11-10T12:31:32.382Z,14.08
2022-11-10T12:34:01.765Z,14.07
2022-11-10T12:36:31.168Z,14.06
2022-11-10T12:39:01.079Z,14.13
2022-11-10T12:41:29.961Z,14.11
2022-11-10T12:44:02.397Z,14.14
2022-11-10T12:46:28.757Z,14.16
2022-11-10T12:48:59.988Z,14.16
2022-11-10T12:51:30.892Z,14.16
2022-11-10T12:53:58.659Z,14.17
2022-11-10T12:56:28.415Z,14.16
2022-11-10T12:59:09.580Z,14.24
2022-11-10T13:01:42.038Z,14.23
2022-11-10T13:04:08.403Z,14.18
2022-11-10T13:06:34.860Z,14.17
2022-11-10T13:09:02.695Z,14.19
2022-11-10T13:11:30.587Z,14.20
2022-11-10T13:13:59.746Z,14.23
2022-11-10T13:16:45.142Z,14.22
2022-11-10T13:19:31.441Z,14.22
2022-11-10T13:22:08.891Z,14.22
2022-11-10T13:24:36.040Z,14.24
2022-11-10T13:27:02.614Z,14.27
2022-11-10T13:29:52.558Z,14.25
2022-11-10T13:32:23.742Z,14.25
2022-11-10T13:34:51.951Z,14.26
2022-11-10T13:37:36.267Z,14.23
2022-11-10T13:40:26.544Z,14.19
2022-11-10T13:43:07.732Z,14.16
2022-11-10T13:45:34.884Z,14.11
2022-11-10T13:48:04.538Z,14.14
2022-11-10T13:50:35.428Z,14.13
2022-11-10T13:53:11.521Z,14.12
2022-11-10T13:55:46.549Z,14.12
2022-11-10T13:58:18.291Z,14.08
2022-11-10T14:00:49.076Z,14.10
2022-11-10T14:03:30.392Z,14.06
2022-11-10T14:06:08.051Z,14.03
2022-11-10T14:08:55.458Z,14.01
2022-11-10T14:11:26.742Z,14.01
2022-11-10T14:13:56.271Z,13.97
2022-11-10T14:16:23.908Z,13.96
2022-11-10T14:18:56.741Z,13.97
2022-11-10T14:21:27.114Z,13.97
2022-11-10T14:23:56.132Z,13.93
2022-11-10T14:26:25.543Z,13.89
2022-11-10T14:28:51.814Z,13.89
2022-11-10T14:31:19.728Z,13.88
2022-11-10T14:33:52.690Z,13.82
2022-11-10T14:36:18.971Z,13.82
2022-11-10T14:38:45.372Z,13.78
2022-11-10T14:41:14.978Z,13.74
2022-11-10T14:43:42.606Z,13.71
2022-11-10T14:46:13.656Z,13.70
2022-11-10T14:48:39.937Z,13.67
2022-11-10T14:51:08.934Z,13.63
2022-11-10T14:53:36.127Z,13.66
2022-11-10T14:56:04.269Z,13.62
2022-11-10T14:58:32.637Z,13.55
2022-11-10T15:01:00.493Z,13.53
2022-11-10T15:03:30.690Z,13.53
2022-11-10T15:05:57.161Z,13.61
2022-11-10T15:08:23.885Z,13.66
2022-11-10T15:10:51.295Z,13.65
2022-11-10T15:13:33.280Z,13.61
2022-11-10T15:16:14.457Z,13.51
2022-11-10T15:18:42.137Z,13.41
2022-11-10T15:21:10.425Z,13.37
2022-11-10T15:23:37.958Z,13.30
2022-11-10T15:26:05.312Z,13.21
2022-11-10T15:28:32.489Z,13.15
2022-11-10T15:30:59.802Z,13.07
2022-11-10T15:33:26.956Z,13.02
2022-11-10T15:35:55.390Z,13.01
2022-11-10T15:38:26.878Z,12.96
2022-11-10T15:41:03.749Z,12.90
2022-11-10T15:43:30.025Z,12.84
2022-11-10T15:45:58.454Z,12.79
2022-11-10T15:48:25.127Z,12.74
2022-11-10T15:50:52.834Z,12.68
2022-11-10T15:53:24.748Z,12.63
2022-11-10T15:55:51.145Z,12.57
2022-11-10T15:58:18.682Z,12.52
2022-11-10T16:00:45.198Z,12.47
2022-11-10T16:03:11.944Z,12.45
2022-11-10T16:05:38.361Z,12.39
2022-11-10T16:08:05.588Z,12.32
2022-11-10T16:10:33.246Z,12.31
2022-11-10T16:12:59.565Z,12.30
2022-11-10T16:15:25.878Z,12.25
2022-11-10T16:17:52.185Z,12.23
2022-11-10T16:20:18.484Z,12.20
2022-11-10T16:22:44.764Z,12.18
2022-11-10T16:25:20.499Z,12.14
2022-11-10T16:27:50.406Z,12.12
2022-11-10T16:30:16.810Z,12.11
2022-11-10T16:32:43.102Z,12.10
2022-11-10T16:35:11.960Z,12.11
2022-11-10T16:37:39.811Z,12.12
2022-11-10T16:40:12.228Z,12.12
2022-11-10T16:42:38.531Z,12.11
2022-11-10T16:45:12.871Z,12.08
2022-11-10T16:47:39.247Z,12.07
2022-11-10T16:50:06.367Z,12.06
2022-11-10T16:52:32.657Z,12.03
2022-11-10T16:54:58.928Z,12.01
2022-11-10T16:57:25.233Z,11.97
2022-11-10T16:59:51.528Z,11.92
2022-11-10T17:02:26.209Z,11.87
2022-11-10T17:04:52.572Z,11.84
2022-11-10T17:07:20.546Z,11.80
2022-11-10T17:09:46.849Z,11.79
2022-11-10T17:12:13.660Z,11.74
2022-11-10T17:14:39.952Z,11.75
2022-11-10T17:17:08.555Z,11.71
2022-11-10T17:19:36.207Z,11.68
2022-11-10T17:22:02.498Z,11.66
2022-11-10T17:24:28.814Z,11.62
2022-11-10T17:26:55.140Z,11.57
2022-11-10T17:29:21.521Z,11.59
2022-11-10T17:31:48.093Z,11.60
2022-11-10T17:34:14.361Z,11.59
2022-11-10T17:36:42.017Z,11.58
2022-11-10T17:39:10.184Z,11.57
2022-11-10T17:41:36.709Z,11.55
2022-11-10T17:44:03.138Z,11.55
2022-11-10T17:46:29.411Z,11.50
2022-11-10T17:49:01.634Z,11.49
2022-11-10T17:51:31.889Z,11.50
2022-11-10T17:54:00.354Z,11.43
2022-11-10T17:56:26.648Z,11.43
2022-11-10T17:58:52.947Z,11.40
2022-11-10T18:01:19.589Z,11.41
2022-11-10T18:03:45.969Z,11.36
2022-11-10T18:06:13.075Z,11.32
2022-11-10T18:08:39.392Z,11.34
2022-11-10T18:11:08.576Z,11.30
2022-11-10T18:13:35.335Z,11.30
2022-11-10T18:16:01.594Z,11.28
2022-11-10T18:18:27.910Z,11.24
2022-11-10T18:20:54.187Z,11.20
2022-11-10T18:23:20.881Z,11.22
2022-11-10T18:25:47.486Z,11.19
2022-11-10T18:28:15.408Z,11.18
2022-11-10T18:30:42.185Z,11.14
2022-11-10T18:33:09.455Z,11.15
2022-11-10T18:35:36.743Z,11.14
2022-11-10T18:38:03.118Z,11.09
2022-11-10T18:40:29.418Z,11.04
2022-11-10T18:42:55.800Z,10.97
2022-11-10T18:45:23.728Z,10.95
2022-11-10T18:47:50.149Z,10.94
2022-11-10T18:50:17.039Z,10.90
2022-11-10T18:52:43.362Z,10.87
2022-11-10T18:55:10.040Z,10.87
2022-11-10T18:57:36.351Z,10.84
2022-11-10T19:00:03.061Z,10.80
2022-11-10T19:02:30.722Z,10.75
2022-11-10T19:04:57.013Z,10.70
2022-11-10T19:07:23.323Z,10.67
2022-11-10T19:09:49.621Z,10.63
2022-11-10T19:12:15.990Z,10.60
2022-11-10T19:14:42.333Z,10.54
2022-11-10T19:17:08.651Z,10.52
2022-11-10T19:19:36.306Z,10.51
2022-11-10T19:22:02.714Z,10.51
2022-11-10T19:24:30.335Z,10.49
2022-11-10T19:27:01.148Z,10.46
2022-11-10T19:29:27.453Z,10.45
2022-11-10T19:31:53.806Z,10.42
2022-11-10T19:34:20.110Z,10.45
2022-11-10T19:36:47.788Z,10.42
2022-11-10T19:39:14.231Z,10.45
2022-11-10T19:41:40.511Z,10.41
2022-11-10T19:44:06.851Z,10.44
2022-11-10T19:46:33.154Z,10.46
2022-11-10T19:48:59.586Z,10.43
2022-11-10T19:51:25.874Z,10.41
2022-11-10T19:53:57.244Z,10.39
2022-11-10T19:56:27.603Z,10.42
2022-11-10T19:58:57.207Z,10.39
2022-11-10T20:01:23.858Z,10.35
2022-11-10T20:03:50.189Z,10.31
2022-11-10T20:06:17.502Z,10.29
2022-11-10T20:08:43.992Z,10.29
2022-11-10T20:11:12.844Z,10.27
2022-11-10T20:13:39.221Z,10.25
2022-11-10T20:16:06.282Z,10.24
2022-11-10T20:18:32.861Z,10.23
2022-11-10T20:21:01.628Z,10.18
2022-11-10T20:23:27.922Z,10.17
2022-11-10T20:26:00.936Z,10.18
2022-11-10T20:28:28.568Z,10.14
2022-11-10T20:30:55.510Z,10.13
2022-11-10T20:33:22.128Z,10.17
2022-11-10T20:35:48.583Z,10.16
2022-11-10T20:38:14.889Z,10.16
2022-11-10T20:40:45.182Z,10.14
2022-11-10T20:43:11.713Z,10.13
2022-11-10T20:45:39.419Z,10.10
2022-11-10T20:48:05.720Z,10.07
2022-11-10T20:50:31.998Z,10.04
2022-11-10T20:52:58.317Z,10.02
2022-11-10T20:55:44.055Z,9.99
2022-11-10T20:58:10.863Z,9.99
2022-11-10T21:00:37.169Z,9.95
2022-11-10T21:03:04.813Z,9.91
2022-11-10T21:05:31.104Z,9.94
2022-11-10T21:07:57.382Z,9.92
2022-11-10T21:10:23.679Z,9.89
2022-11-10T21:12:49.957Z,9.88
2022-11-10T21:15:16.396Z,9.87
2022-11-10T21:17:44.190Z,9.83
2022-11-10T21:20:12.351Z,9.87
2022-11-10T21:22:38.650Z,9.85
2022-11-10T21:25:05.426Z,9.85
2022-11-10T21:27:31.715Z,9.82
2022-11-10T21:29:58.263Z,9.82
2022-11-10T21:32:24.641Z,9.85
2022-11-10T21:34:50.913Z,9.82
2022-11-10T21:37:18.528Z,9.81
2022-11-10T21:39:44.829Z,9.78
2022-11-10T21:42:11.105Z,9.78
2022-11-10T21:44:37.432Z,9.81
2022-11-10T21:47:04.319Z,9.79
2022-11-10T21:49:30.610Z,9.83
2022-11-10T21:51:56.913Z,9.80
2022-11-10T21:54:24.542Z,9.80
2022-11-10T21:56:50.825Z,9.79
2022-11-10T21:59:17.114Z,9.77
2022-11-10T22:01:43.719Z,9.76
2022-11-10T22:04:10.065Z,9.79
2022-11-10T22:06:36.390Z,9.76
2022-11-10T22:09:02.706Z,9.78
2022-11-10T22:11:30.323Z,9.77
2022-11-10T22:13:56.610Z,9.78
2022-11-10T22:16:25.555Z,9.76
2022-11-10T22:18:51.964Z,9.78
2022-11-10T22:21:18.276Z,9.79
2022-11-10T22:23:44.578Z,9.76
2022-11-10T22:26:11.123Z,9.79
2022-11-10T22:28:39.001Z,9.80
2022-11-10T22:31:06.203Z,9.77
2022-11-10T22:33:32.580Z,9.77
2022-11-10T22:35:58.858Z,9.75
2022-11-10T22:38:25.175Z,9.73
2022-11-10T22:40:51.445Z,9.72
2022-11-10T22:43:17.744Z,9.72
2022-11-10T22:45:45.665Z,9.69
2022-11-10T22:48:11.930Z,9.68
2022-11-10T22:50:38.216Z,9.64
2022-11-10T22:53:04.523Z,9.63
2022-11-10T22:55:30.800Z,9.63
2022-11-10T22:57:57.099Z,9.60
2022-11-10T23:00:23.389Z,9.59
2022-11-10T23:02:52.759Z,9.59
2022-11-10T23:05:19.030Z,9.61
2022-11-10T23:07:45.322Z,9.60
2022-11-10T23:10:11.619Z,9.59
2022-11-10T23:12:37.933Z,9.58
2022-11-10T23:15:04.349Z,9.57
2022-11-10T23:17:30.663Z,9.55
2022-11-10T23:19:58.282Z,9.56
2022-11-10T23:22:24.560Z,9.56
2022-11-10T23:24:56.811Z,9.53
2022-11-10T23:27:23.733Z,9.49
2022-11-10T23:29:50.046Z,9.49
2022-11-10T23:32:16.332Z,9.52
2022-11-10T23:34:42.589Z,9.49
2022-11-10T23:37:10.285Z,9.47
2022-11-10T23:39:36.575Z,9.43
2022-11-10T23:42:02.934Z,9.44
2022-11-10T23:44:29.230Z,9.41
2022-11-10T23:46:55.516Z,9.40
2022-11-10T23:49:21.796Z,9.36
2022-11-10T23:51:48.099Z,9.34
2022-11-10T23:54:15.734Z,9.35
2022-11-10T23:56:42.007Z,9.31
2022-11-10T23:59:08.291Z,9.26
